K.pluto — 3EYQ3 — position and weather

sailwx.info

Track history (hours):
 
Tides and Currents Weather Stations Pressure Air Temp Water Temp Dewpoint Dewpoint Depression Visibility Wind Speed Wind Dir Waves Ship Positions

K.pluto

Last reported at 2016-Dec-18 01:22 UTC. Time now 2017-Jan-19 13:02 UTC.
Position N 01°15' E 104°03'.
Warning: this ship's position is 32 days out of date.

Length 170 m; draft 10.5 m.

Type: Cargo ship. MMSI: 373504000.

Date/timePositionNaut miles runAvg speedWind from/ knotsBaromVisibWave heightAir tempDewpointWater temp
2016-Dec-18 01:22N 01°15' E 104°03'9 9.7
2016-Dec-18 00:28N 01°14' E 103°55'2 2.3
2016-Dec-17 23:25N 01°15' E 103°52'0 0.0
2016-Dec-17 22:31N 01°15' E 103°52'0 0.0
2016-Dec-17 21:31N 01°15' E 103°52'0 0.1
2016-Dec-17 20:28N 01°15' E 103°53'0 0.1
2016-Dec-17 19:31N 01°15' E 103°52'0 0.0
2016-Dec-17 18:31N 01°15' E 103°52'0 0.0
2016-Dec-17 17:31N 01°15' E 103°52'0 0.0
2016-Dec-17 16:31N 01°15' E 103°52'0 0.0
2016-Dec-17 15:31N 01°15' E 103°52'0 0.3
2016-Dec-17 14:33N 01°14' E 103°53'4 3.7
2016-Dec-17 13:33N 01°15' E 103°56'  
2016-Dec-14 12:31S 03°41' E 114°26'0 0.4
2016-Dec-14 11:28S 03°40' E 114°26'0 0.0
2016-Dec-14 10:31S 03°40' E 114°26'0 0.0
2016-Dec-14 08:34S 03°40' E 114°26'0 0.0
2016-Dec-14 06:27S 03°40' E 114°26'0 0.1
2016-Dec-14 05:33S 03°40' E 114°26'0 0.0
2016-Dec-14 04:22S 03°40' E 114°26'0 0.1
2016-Dec-14 03:28S 03°40' E 114°26'0 0.1
2016-Dec-14 02:24S 03°40' E 114°26'0 0.0
2016-Dec-14 01:30S 03°40' E 114°26'0 0.0
2016-Dec-14 00:24S 03°40' E 114°26'0 0.0
2016-Dec-13 23:21S 03°40' E 114°26'0 0.0
2016-Dec-13 22:33S 03°40' E 114°26'0 0.0
2016-Dec-13 21:33S 03°40' E 114°26'0 0.0
2016-Dec-13 20:33S 03°40' E 114°26'0 0.1
2016-Dec-13 19:18S 03°40' E 114°26'0 0.1
2016-Dec-13 18:30S 03°40' E 114°26'0 0.0
2016-Dec-13 17:33S 03°40' E 114°26'0 0.0
2016-Dec-13 16:33S 03°40' E 114°26'0 0.1
2016-Dec-13 15:27S 03°40' E 114°26'0 0.0
2016-Dec-13 14:27S 03°40' E 114°26'0 0.0
2016-Dec-13 11:24S 03°40' E 114°26'0 0.0
2016-Dec-13 09:03S 03°40' E 114°26'0 0.0
2016-Dec-13 08:30S 03°40' E 114°26'0 0.0
2016-Dec-13 07:33S 03°40' E 114°26'0 0.0
2016-Dec-13 06:33S 03°40' E 114°26'0 0.1
2016-Dec-13 05:33S 03°40' E 114°26'0 0.0
2016-Dec-13 04:33S 03°40' E 114°26'0 0.0
2016-Dec-13 03:24S 03°40' E 114°26'0 0.1
2016-Dec-13 01:21S 03°40' E 114°26'0 0.0
2016-Dec-13 00:33S 03°40' E 114°26'0 0.0
2016-Dec-12 23:33S 03°40' E 114°26'0 0.0
2016-Dec-12 22:33S 03°40' E 114°26'0 0.0
2016-Dec-12 21:33S 03°40' E 114°26'0 0.0
2016-Dec-12 19:30S 03°40' E 114°26'0 0.0
2016-Dec-12 18:30S 03°40' E 114°26'0 0.0
2016-Dec-12 17:33S 03°40' E 114°26'0 0.0
2016-Dec-12 16:33S 03°40' E 114°26'0 0.0
2016-Dec-12 15:33S 03°40' E 114°26'0 0.1
2016-Dec-12 14:33S 03°40' E 114°26'0 0.1
2016-Dec-12 13:33S 03°40' E 114°26'0 0.0
2016-Dec-12 12:33S 03°40' E 114°26'0 0.1
2016-Dec-12 11:30S 03°40' E 114°26'0 0.0
2016-Dec-12 10:33S 03°40' E 114°26'0 0.1
2016-Dec-12 09:33S 03°40' E 114°26'0 0.0
2016-Dec-12 08:33S 03°40' E 114°26'0 0.0
2016-Dec-12 06:21S 03°40' E 114°26'0 0.0
2016-Dec-12 05:33S 03°40' E 114°26'0 0.0
2016-Dec-12 04:21S 03°40' E 114°26'0 0.1
2016-Dec-12 03:27S 03°40' E 114°26'0 0.1
2016-Dec-12 02:33S 03°40' E 114°26'0 0.1
2016-Dec-12 01:33S 03°40' E 114°26'0 0.0
2016-Dec-12 00:33S 03°40' E 114°26'0 0.1
2016-Dec-11 23:33S 03°40' E 114°26'0 0.0
2016-Dec-11 22:30S 03°40' E 114°26'0 0.0
2016-Dec-11 21:33S 03°40' E 114°26'0 0.0
2016-Dec-11 20:33S 03°40' E 114°26'0 0.0
2016-Dec-11 19:33S 03°40' E 114°26'0 0.0
2016-Dec-11 18:33S 03°40' E 114°26'0 0.1
2016-Dec-11 17:33S 03°40' E 114°26'0 0.0
2016-Dec-11 16:33S 03°40' E 114°26'0 0.0
2016-Dec-11 15:33S 03°40' E 114°26'0 0.0
2016-Dec-11 14:33S 03°40' E 114°26'0 0.0
2016-Dec-11 13:30S 03°40' E 114°26'0 0.0
2016-Dec-11 12:33S 03°40' E 114°26'0 0.0
2016-Dec-11 11:33S 03°40' E 114°26'0 0.0
2016-Dec-11 10:33S 03°40' E 114°26'0 0.0
2016-Dec-11 09:27S 03°40' E 114°26'0 0.0
2016-Dec-11 08:27S 03°40' E 114°26'0 0.0
2016-Dec-11 07:33S 03°40' E 114°26'0 0.0
2016-Dec-11 06:33S 03°40' E 114°26'0 0.0
2016-Dec-11 05:33S 03°40' E 114°26'0 0.0
2016-Dec-11 04:30S 03°40' E 114°26'0 0.0
2016-Dec-11 03:33S 03°40' E 114°26'0 0.1
2016-Dec-11 02:33S 03°40' E 114°26'0 0.0
2016-Dec-11 01:33S 03°40' E 114°26'0 0.0
2016-Dec-11 00:33S 03°40' E 114°26'0 0.1
2016-Dec-10 23:33S 03°40' E 114°26'0 0.0
2016-Dec-10 22:27S 03°40' E 114°26'0 0.0
2016-Dec-10 21:33S 03°40' E 114°26'0 0.0
2016-Dec-10 20:33S 03°40' E 114°26'0 0.0
2016-Dec-10 19:33S 03°40' E 114°26'0 0.0
2016-Dec-10 18:33S 03°40' E 114°26'0 0.1
2016-Dec-10 17:33S 03°40' E 114°26'0 0.1
2016-Dec-10 16:33S 03°40' E 114°26'0 0.1
2016-Dec-10 15:12S 03°40' E 114°26'0 0.0
2016-Dec-10 14:27S 03°40' E 114°26'0 0.1
2016-Dec-10 13:33S 03°40' E 114°26'0 0.1
2016-Dec-10 12:30S 03°40' E 114°26'0 0.1
2016-Dec-10 11:33S 03°40' E 114°26'0 0.0
2016-Dec-10 10:33S 03°40' E 114°26'0 0.0
2016-Dec-10 09:33S 03°40' E 114°26'0 0.1
2016-Dec-10 08:33S 03°40' E 114°26'0 0.0
2016-Dec-10 07:33S 03°40' E 114°26'0 0.1
2016-Dec-10 06:33S 03°40' E 114°26'0 0.1
2016-Dec-10 05:33S 03°40' E 114°26'0 0.1
2016-Dec-10 04:33S 03°40' E 114°26'0 0.0
2016-Dec-10 03:27S 03°40' E 114°26'0 0.1
2016-Dec-10 02:30S 03°40' E 114°26'0 0.0
2016-Dec-10 01:33S 03°40' E 114°26'0 0.1
2016-Dec-10 00:33S 03°40' E 114°26'0 0.1
2016-Dec-09 23:30S 03°40' E 114°26'0 0.0
2016-Dec-09 22:33S 03°40' E 114°26'0 0.0
2016-Dec-09 21:33S 03°40' E 114°26'0 0.0
2016-Dec-09 20:33S 03°40' E 114°26'0 0.0
2016-Dec-09 19:30S 03°40' E 114°26'0 0.1
2016-Dec-09 18:33S 03°40' E 114°26'0 0.0
2016-Dec-09 17:33S 03°40' E 114°26'0 0.0
2016-Dec-09 16:32S 03°40' E 114°26'0 0.0
2016-Dec-09 15:33S 03°40' E 114°26'0 0.1
2016-Dec-09 14:33S 03°40' E 114°26'0 0.1
2016-Dec-09 13:33S 03°40' E 114°26'0 0.0
2016-Dec-09 12:32S 03°40' E 114°26'0 0.0
2016-Dec-09 11:33S 03°40' E 114°26'0 0.0
2016-Dec-09 10:33S 03°40' E 114°26'0 0.1
2016-Dec-09 09:32S 03°40' E 114°26'0 0.0
2016-Dec-09 08:32S 03°40' E 114°26'1 1.3
2016-Dec-09 07:33S 03°41' E 114°27'7 7.3
2016-Dec-09 06:33S 03°49' E 114°27'  
Track history (hours):
 
Tides and Currents Weather Stations Pressure Air Temp Water Temp Dewpoint Dewpoint Depression Visibility Wind Speed Wind Dir Waves Ship Positions

K.pluto

Last reported at 2016-Dec-18 01:22 UTC. Time now 2017-Jan-19 13:02 UTC.
Position N 01°15' E 104°03'.
Warning: this ship's position is 32 days out of date.

Length 170 m; draft 10.5 m.

Type: Cargo ship. MMSI: 373504000.

Date/timePositionNaut miles runAvg speedWind from/ knotsBaromVisibWave heightAir tempDewpointWater temp
2016-Dec-18 01:22N 01°15' E 104°03'9 9.7
2016-Dec-18 00:28N 01°14' E 103°55'2 2.3
2016-Dec-17 23:25N 01°15' E 103°52'0 0.0
2016-Dec-17 22:31N 01°15' E 103°52'0 0.0
2016-Dec-17 21:31N 01°15' E 103°52'0 0.1
2016-Dec-17 20:28N 01°15' E 103°53'0 0.1
2016-Dec-17 19:31N 01°15' E 103°52'0 0.0
2016-Dec-17 18:31N 01°15' E 103°52'0 0.0
2016-Dec-17 17:31N 01°15' E 103°52'0 0.0
2016-Dec-17 16:31N 01°15' E 103°52'0 0.0
2016-Dec-17 15:31N 01°15' E 103°52'0 0.3
2016-Dec-17 14:33N 01°14' E 103°53'4 3.7
2016-Dec-17 13:33N 01°15' E 103°56'  
2016-Dec-14 12:31S 03°41' E 114°26'0 0.4
2016-Dec-14 11:28S 03°40' E 114°26'0 0.0
2016-Dec-14 10:31S 03°40' E 114°26'0 0.0
2016-Dec-14 08:34S 03°40' E 114°26'0 0.0
2016-Dec-14 06:27S 03°40' E 114°26'0 0.1
2016-Dec-14 05:33S 03°40' E 114°26'0 0.0
2016-Dec-14 04:22S 03°40' E 114°26'0 0.1
2016-Dec-14 03:28S 03°40' E 114°26'0 0.1
2016-Dec-14 02:24S 03°40' E 114°26'0 0.0
2016-Dec-14 01:30S 03°40' E 114°26'0 0.0
2016-Dec-14 00:24S 03°40' E 114°26'0 0.0
2016-Dec-13 23:21S 03°40' E 114°26'0 0.0
2016-Dec-13 22:33S 03°40' E 114°26'0 0.0
2016-Dec-13 21:33S 03°40' E 114°26'0 0.0
2016-Dec-13 20:33S 03°40' E 114°26'0 0.1
2016-Dec-13 19:18S 03°40' E 114°26'0 0.1
2016-Dec-13 18:30S 03°40' E 114°26'0 0.0
2016-Dec-13 17:33S 03°40' E 114°26'0 0.0
2016-Dec-13 16:33S 03°40' E 114°26'0 0.1
2016-Dec-13 15:27S 03°40' E 114°26'0 0.0
2016-Dec-13 14:27S 03°40' E 114°26'0 0.0
2016-Dec-13 11:24S 03°40' E 114°26'0 0.0
2016-Dec-13 09:03S 03°40' E 114°26'0 0.0
2016-Dec-13 08:30S 03°40' E 114°26'0 0.0
2016-Dec-13 07:33S 03°40' E 114°26'0 0.0
2016-Dec-13 06:33S 03°40' E 114°26'0 0.1
2016-Dec-13 05:33S 03°40' E 114°26'0 0.0
2016-Dec-13 04:33S 03°40' E 114°26'0 0.0
2016-Dec-13 03:24S 03°40' E 114°26'0 0.1
2016-Dec-13 01:21S 03°40' E 114°26'0 0.0
2016-Dec-13 00:33S 03°40' E 114°26'0 0.0
2016-Dec-12 23:33S 03°40' E 114°26'0 0.0
2016-Dec-12 22:33S 03°40' E 114°26'0 0.0
2016-Dec-12 21:33S 03°40' E 114°26'0 0.0
2016-Dec-12 19:30S 03°40' E 114°26'0 0.0
2016-Dec-12 18:30S 03°40' E 114°26'0 0.0
2016-Dec-12 17:33S 03°40' E 114°26'0 0.0
2016-Dec-12 16:33S 03°40' E 114°26'0 0.0
2016-Dec-12 15:33S 03°40' E 114°26'0 0.1
2016-Dec-12 14:33S 03°40' E 114°26'0 0.1
2016-Dec-12 13:33S 03°40' E 114°26'0 0.0
2016-Dec-12 12:33S 03°40' E 114°26'0 0.1
2016-Dec-12 11:30S 03°40' E 114°26'0 0.0
2016-Dec-12 10:33S 03°40' E 114°26'0 0.1
2016-Dec-12 09:33S 03°40' E 114°26'0 0.0
2016-Dec-12 08:33S 03°40' E 114°26'0 0.0
2016-Dec-12 06:21S 03°40' E 114°26'0 0.0
2016-Dec-12 05:33S 03°40' E 114°26'0 0.0
2016-Dec-12 04:21S 03°40' E 114°26'0 0.1
2016-Dec-12 03:27S 03°40' E 114°26'0 0.1
2016-Dec-12 02:33S 03°40' E 114°26'0 0.1
2016-Dec-12 01:33S 03°40' E 114°26'0 0.0
2016-Dec-12 00:33S 03°40' E 114°26'0 0.1
2016-Dec-11 23:33S 03°40' E 114°26'0 0.0
2016-Dec-11 22:30S 03°40' E 114°26'0 0.0
2016-Dec-11 21:33S 03°40' E 114°26'0 0.0
2016-Dec-11 20:33S 03°40' E 114°26'0 0.0
2016-Dec-11 19:33S 03°40' E 114°26'0 0.0
2016-Dec-11 18:33S 03°40' E 114°26'0 0.1
2016-Dec-11 17:33S 03°40' E 114°26'0 0.0
2016-Dec-11 16:33S 03°40' E 114°26'0 0.0
2016-Dec-11 15:33S 03°40' E 114°26'0 0.0
2016-Dec-11 14:33S 03°40' E 114°26'0 0.0
2016-Dec-11 13:30S 03°40' E 114°26'0 0.0
2016-Dec-11 12:33S 03°40' E 114°26'0 0.0
2016-Dec-11 11:33S 03°40' E 114°26'0 0.0
2016-Dec-11 10:33S 03°40' E 114°26'0 0.0
2016-Dec-11 09:27S 03°40' E 114°26'0 0.0
2016-Dec-11 08:27S 03°40' E 114°26'0 0.0
2016-Dec-11 07:33S 03°40' E 114°26'0 0.0
2016-Dec-11 06:33S 03°40' E 114°26'0 0.0
2016-Dec-11 05:33S 03°40' E 114°26'0 0.0
2016-Dec-11 04:30S 03°40' E 114°26'0 0.0
2016-Dec-11 03:33S 03°40' E 114°26'0 0.1
2016-Dec-11 02:33S 03°40' E 114°26'0 0.0
2016-Dec-11 01:33S 03°40' E 114°26'0 0.0
2016-Dec-11 00:33S 03°40' E 114°26'0 0.1
2016-Dec-10 23:33S 03°40' E 114°26'0 0.0
2016-Dec-10 22:27S 03°40' E 114°26'0 0.0
2016-Dec-10 21:33S 03°40' E 114°26'0 0.0
2016-Dec-10 20:33S 03°40' E 114°26'0 0.0
2016-Dec-10 19:33S 03°40' E 114°26'0 0.0
2016-Dec-10 18:33S 03°40' E 114°26'0 0.1
2016-Dec-10 17:33S 03°40' E 114°26'0 0.1
2016-Dec-10 16:33S 03°40' E 114°26'0 0.1
2016-Dec-10 15:12S 03°40' E 114°26'0 0.0
2016-Dec-10 14:27S 03°40' E 114°26'0 0.1
2016-Dec-10 13:33S 03°40' E 114°26'0 0.1
2016-Dec-10 12:30S 03°40' E 114°26'0 0.1
2016-Dec-10 11:33S 03°40' E 114°26'0 0.0
2016-Dec-10 10:33S 03°40' E 114°26'0 0.0
2016-Dec-10 09:33S 03°40' E 114°26'0 0.1
2016-Dec-10 08:33S 03°40' E 114°26'0 0.0
2016-Dec-10 07:33S 03°40' E 114°26'0 0.1
2016-Dec-10 06:33S 03°40' E 114°26'0 0.1
2016-Dec-10 05:33S 03°40' E 114°26'0 0.1
2016-Dec-10 04:33S 03°40' E 114°26'0 0.0
2016-Dec-10 03:27S 03°40' E 114°26'0 0.1
2016-Dec-10 02:30S 03°40' E 114°26'0 0.0
2016-Dec-10 01:33S 03°40' E 114°26'0 0.1
2016-Dec-10 00:33S 03°40' E 114°26'0 0.1
2016-Dec-09 23:30S 03°40' E 114°26'0 0.0
2016-Dec-09 22:33S 03°40' E 114°26'0 0.0
2016-Dec-09 21:33S 03°40' E 114°26'0 0.0
2016-Dec-09 20:33S 03°40' E 114°26'0 0.0
2016-Dec-09 19:30S 03°40' E 114°26'0 0.1
2016-Dec-09 18:33S 03°40' E 114°26'0 0.0
2016-Dec-09 17:33S 03°40' E 114°26'0 0.0
2016-Dec-09 16:32S 03°40' E 114°26'0 0.0
2016-Dec-09 15:33S 03°40' E 114°26'0 0.1
2016-Dec-09 14:33S 03°40' E 114°26'0 0.1
2016-Dec-09 13:33S 03°40' E 114°26'0 0.0
2016-Dec-09 12:32S 03°40' E 114°26'0 0.0
2016-Dec-09 11:33S 03°40' E 114°26'0 0.0
2016-Dec-09 10:33S 03°40' E 114°26'0 0.1
2016-Dec-09 09:32S 03°40' E 114°26'0 0.0
2016-Dec-09 08:32S 03°40' E 114°26'1 1.3
2016-Dec-09 07:33S 03°41' E 114°27'7 7.3
2016-Dec-09 06:33S 03°49' E 114°27'  

Dump ship's entire track history